Time;durP1;ratioP1;P1;durP2;ratioP2;P2;SDS_P1;SDS_P2;PMS_P1;PMS_P2;Temp;Humidity;BMP_temperature;BMP_pressure;BME280_temperature;BME280_humidity;BME280_pressure;Samples;Min_cycle;Max_cycle;Signal;HPM_P1;HPM_P2
2022/07/14 00:00:44;;;;;;;;;;;;;;;27.22;44.85;100034.03;2065648;28;19917;-75
2022/07/14 00:01:45;;;;;;;;;;;;;;;27.22;44.85;100028.50;2066480;28;19956;-75
2022/07/14 00:02:45;;;;;;;;;;;;;;;27.22;45.14;100025.72;2066613;28;20036;-74
2022/07/14 00:03:46;;;;;;;;;;;;;;;27.23;45.03;100024.66;2064789;28;20032;-75
2022/07/14 00:04:46;;;;;;;;;;;;;;;27.21;45.13;100029.53;2066578;28;19963;-75
2022/07/14 00:05:47;;;;;;;;;;;;;;;27.22;44.94;100028.50;2067275;28;19917;-75
2022/07/14 00:06:47;;;;;;;;;;;;;;;27.22;44.87;100022.09;2060245;28;19918;-75
2022/07/14 00:07:47;;;;;;;;;;;;;;;27.22;45.14;100017.44;2060318;28;20391;-75
2022/07/14 00:08:47;;;;;;;;;;;;;;;27.22;45.03;100019.31;2060451;28;19924;-75
2022/07/14 00:09:48;;;;;;;;;;;;;;;27.22;45.06;100016.53;2063177;28;19965;-75
2022/07/14 00:10:48;;;;;;;;;;;;;;;27.21;45.05;100015.69;2063331;28;19920;-75
2022/07/14 00:11:48;;;;;;;;;;;;;;;27.22;44.88;100020.19;2063945;28;19918;-75
2022/07/14 00:12:49;;;;;;;;;;;;;;;27.23;45.13;100023.81;2067630;28;20394;-75
2022/07/14 00:13:49;;;;;;;;;;;;;;;27.23;45.18;100021.03;2067135;28;19913;-75
2022/07/14 00:14:49;;;;;;;;;;;;;;;27.22;44.85;100022.97;2065383;28;19940;-75
2022/07/14 00:15:49;;;;;;;;;;;;;;;27.23;45.06;100026.56;2064318;28;20359;-75
2022/07/14 00:16:50;;;;;;;;;;;;;;;27.22;45.15;100020.19;2065311;28;20307;-75
2022/07/14 00:17:51;;;;;;;;;;;;;;;27.22;44.99;100025.72;2067005;28;20432;-75
2022/07/14 00:18:51;;;;;;;;;;;;;;;27.23;45.17;100021.88;2066999;28;20031;-75
2022/07/14 00:19:52;;;;;;;;;;;;;;;27.21;44.92;100021.22;2066708;28;19917;-75
2022/07/14 00:20:52;;;;;;;;;;;;;;;27.22;45.18;100022.97;2065420;28;20017;-75
2022/07/14 00:21:52;;;;;;;;;;;;;;;27.22;45.16;100022.97;2063566;28;20081;-75
2022/07/14 00:22:56;;;;;;;;;;;;;;;27.22;45.21;100028.50;2068576;28;19978;-75
2022/07/14 00:23:56;;;;;;;;;;;;;;;27.22;45.22;100022.97;2067124;28;19917;-75
2022/07/14 00:24:57;;;;;;;;;;;;;;;27.21;45.08;100024.00;2066302;28;20561;-75
2022/07/14 00:25:57;;;;;;;;;;;;;;;27.22;45.23;100025.72;2066756;28;20000;-75
2022/07/14 00:26:57;;;;;;;;;;;;;;;27.22;45.11;100022.97;2064975;28;19922;-75
2022/07/14 00:27:58;;;;;;;;;;;;;;;27.22;44.96;100016.53;2065875;28;19917;-75
2022/07/14 00:28:58;;;;;;;;;;;;;;;27.21;45.28;100024.00;2067900;28;19909;-75
2022/07/14 00:29:58;;;;;;;;;;;;;;;27.21;44.97;100021.22;2066604;28;19968;-75
2022/07/14 00:31:03;;;;;;;;;;;;;;;27.21;45.14;100018.47;2067328;28;19909;-75
2022/07/14 00:32:06;;;;;;;;;;;;;;;27.21;44.97;100015.69;2060201;28;19968;-75
2022/07/14 00:33:06;;;;;;;;;;;;;;;27.21;45.04;100018.47;2059811;28;19925;-75
2022/07/14 00:34:07;;;;;;;;;;;;;;;27.20;45.12;100016.78;2067181;28;19917;-75
2022/07/14 00:35:07;;;;;;;;;;;;;;;27.20;45.25;100014.00;2063824;28;20029;-75
2022/07/14 00:36:08;;;;;;;;;;;;;;;27.21;45.00;100020.38;2062384;28;21077;-75
2022/07/14 00:37:08;;;;;;;;;;;;;;;27.21;45.05;100020.38;2066683;28;20003;-75
2022/07/14 00:38:08;;;;;;;;;;;;;;;27.20;44.95;100014.00;2067714;28;19928;-75
2022/07/14 00:39:09;;;;;;;;;;;;;;;27.20;45.10;100019.53;2063872;28;19917;-75
2022/07/14 00:40:09;;;;;;;;;;;;;;;27.19;45.04;100017.81;2065158;28;20055;-74
2022/07/14 00:41:10;;;;;;;;;;;;;;;27.20;44.96;100018.69;2064689;28;19971;-75
2022/07/14 00:42:10;;;;;;;;;;;;;;;27.20;45.12;100018.69;2064687;28;20945;-75
2022/07/14 00:43:10;;;;;;;;;;;;;;;27.21;45.07;100020.38;2069569;28;20718;-75
2022/07/14 00:44:10;;;;;;;;;;;;;;;27.19;45.06;100020.59;2061501;28;19917;-75
2022/07/14 00:45:12;;;;;;;;;;;;;;;27.20;45.10;100024.22;2066684;28;19921;-75
2022/07/14 00:46:12;;;;;;;;;;;;;;;27.20;44.79;100019.53;2066045;28;19924;-75
2022/07/14 00:47:13;;;;;;;;;;;;;;;27.20;44.80;100025.06;2065570;28;19928;-74
2022/07/14 00:48:13;;;;;;;;;;;;;;;27.20;44.83;100019.53;2067846;28;19917;-75
2022/07/14 00:49:33;;;;;;;;;;;;;;;27.21;44.86;100020.38;2062241;28;19986;-75
2022/07/14 00:50:33;;;;;;;;;;;;;;;27.20;44.86;100016.78;2068817;28;19924;-75
2022/07/14 00:51:33;;;;;;;;;;;;;;;27.21;44.97;100020.38;2063496;28;20501;-75
2022/07/14 00:52:34;;;;;;;;;;;;;;;27.20;45.16;100019.53;2062025;28;20035;-75
2022/07/14 00:53:34;;;;;;;;;;;;;;;27.20;44.98;100014.00;2061328;28;19917;-75
2022/07/14 00:54:35;;;;;;;;;;;;;;;27.20;45.21;100008.47;2063351;28;19917;-75
2022/07/14 00:55:35;;;;;;;;;;;;;;;27.20;44.95;100014.00;2068094;28;20710;-75
2022/07/14 00:56:36;;;;;;;;;;;;;;;27.20;45.18;100004.84;2062017;28;20627;-75
2022/07/14 00:57:37;;;;;;;;;;;;;;;27.20;45.17;100016.78;2068023;28;20035;-75
2022/07/14 00:58:37;;;;;;;;;;;;;;;27.20;45.27;100008.47;2060816;28;20678;-75
2022/07/14 00:59:37;;;;;;;;;;;;;;;27.21;45.25;100003.78;2066623;28;19917;-75
2022/07/14 01:00:38;;;;;;;;;;;;;;;27.20;45.18;100002.94;2062911;28;19955;-75
2022/07/14 01:01:39;;;;;;;;;;;;;;;27.20;45.23;100013.16;2069551;28;19917;-75
2022/07/14 01:02:40;;;;;;;;;;;;;;;27.20;45.21;100014.00;2067743;28;19917;-75
2022/07/14 01:03:40;;;;;;;;;;;;;;;27.20;45.15;100008.47;2066417;28;20067;-75
2022/07/14 01:04:41;;;;;;;;;;;;;;;27.20;45.19;100008.47;2066784;28;19921;-75
2022/07/14 01:05:41;;;;;;;;;;;;;;;27.19;44.98;100006.75;2065423;28;19917;-75
2022/07/14 01:06:41;;;;;;;;;;;;;;;27.20;45.33;100007.63;2074799;28;19917;-75
2022/07/14 01:07:42;;;;;;;;;;;;;;;27.19;45.23;100005.91;2065816;28;20418;-75
2022/07/14 01:08:42;;;;;;;;;;;;;;;27.20;45.01;100007.63;2066131;28;19924;-75
2022/07/14 01:09:42;;;;;;;;;;;;;;;27.19;45.22;100003.97;2069269;28;19970;-76
2022/07/14 01:10:43;;;;;;;;;;;;;;;27.19;45.17;100000.38;2067699;28;19917;-75
2022/07/14 01:11:43;;;;;;;;;;;;;;;27.19;45.33;100000.38;2074843;28;19916;-74
2022/07/14 01:12:49;;;;;;;;;;;;;;;27.18;45.38;100004.16;2066115;28;19955;-75
2022/07/14 01:13:49;;;;;;;;;;;;;;;27.19;45.30;100003.13;2066572;28;19921;-75
2022/07/14 01:14:50;;;;;;;;;;;;;;;27.18;45.33;99999.47;2073822;28;20298;-75
2022/07/14 01:15:50;;;;;;;;;;;;;;;27.20;45.21;100007.63;2068406;28;20498;-75
2022/07/14 01:16:55;;;;;;;;;;;;;;;27.18;45.21;100005.03;2068686;28;20351;-75
2022/07/14 01:17:55;;;;;;;;;;;;;;;27.18;45.19;100002.25;2070758;28;19921;-75
2022/07/14 01:18:55;;;;;;;;;;;;;;;27.17;45.39;100008.84;2068342;28;19917;-74
2022/07/14 01:19:55;;;;;;;;;;;;;;;27.18;45.13;100010.56;2075109;28;20303;-75
2022/07/14 01:20:56;;;;;;;;;;;;;;;27.16;45.25;99996.91;2067296;28;19921;-75
2022/07/14 01:21:56;;;;;;;;;;;;;;;27.18;45.32;100002.25;2074075;28;20635;-75
2022/07/14 01:22:56;;;;;;;;;;;;;;;27.17;45.35;99997.78;2073164;28;20817;-75
2022/07/14 01:23:57;;;;;;;;;;;;;;;27.16;45.45;99994.16;2071295;28;19909;-75
2022/07/14 01:24:57;;;;;;;;;;;;;;;27.17;45.14;99992.25;2076721;28;20355;-75
2022/07/14 01:25:57;;;;;;;;;;;;;;;27.17;45.42;100003.31;2070796;28;20458;-75
2022/07/14 01:26:58;;;;;;;;;;;;;;;27.17;45.39;99997.78;2065307;28;20304;-75
2022/07/14 01:27:58;;;;;;;;;;;;;;;27.17;45.19;99997.78;2070876;28;20735;-75
2022/07/14 01:28:58;;;;;;;;;;;;;;;27.16;45.34;99990.53;2066773;28;19918;-75
2022/07/14 01:29:59;;;;;;;;;;;;;;;27.16;45.48;99990.53;2070388;28;19921;-75
2022/07/14 01:30:59;;;;;;;;;;;;;;;27.16;45.38;99988.59;2067082;28;20304;-75
2022/07/14 01:31:59;;;;;;;;;;;;;;;27.17;45.42;99992.25;2062011;28;19924;-75
2022/07/14 01:33:00;;;;;;;;;;;;;;;27.17;45.48;99986.72;2076418;28;19923;-75
2022/07/14 01:34:00;;;;;;;;;;;;;;;27.17;45.24;99986.72;2059395;28;19921;-74
2022/07/14 01:35:01;;;;;;;;;;;;;;;27.18;45.39;99988.41;2066698;28;20696;-75
2022/07/14 01:36:02;;;;;;;;;;;;;;;27.18;45.45;99993.09;2065625;28;19961;-75
2022/07/14 01:37:02;;;;;;;;;;;;;;;27.17;45.42;99989.50;2067090;28;20056;-75
2022/07/14 01:38:02;;;;;;;;;;;;;;;27.17;45.19;99983.97;2062419;28;19918;-75
2022/07/14 01:39:03;;;;;;;;;;;;;;;27.18;45.23;99988.41;2064096;28;20385;-75
2022/07/14 01:40:04;;;;;;;;;;;;;;;27.17;45.24;99989.50;2067082;28;19970;-75
2022/07/14 01:41:05;;;;;;;;;;;;;;;27.18;45.44;99982.88;2067178;28;19917;-75
2022/07/14 01:42:05;;;;;;;;;;;;;;;27.18;45.23;99988.41;2067055;28;20796;-75
2022/07/14 01:43:05;;;;;;;;;;;;;;;27.16;45.33;99985.84;2066310;28;19924;-75
2022/07/14 01:44:06;;;;;;;;;;;;;;;27.17;45.25;99986.72;2065350;28;20764;-75
2022/07/14 01:45:06;;;;;;;;;;;;;;;27.17;45.46;99986.72;2064749;28;20741;-75
2022/07/14 01:46:08;;;;;;;;;;;;;;;27.18;45.45;99990.34;2064227;28;19917;-75
2022/07/14 01:47:09;;;;;;;;;;;;;;;27.17;45.38;99992.25;2068451;28;19921;-75
2022/07/14 01:48:09;;;;;;;;;;;;;;;27.17;45.28;99989.50;2066422;28;19923;-75
2022/07/14 01:49:09;;;;;;;;;;;;;;;27.16;45.46;99991.38;2065644;28;19917;-75
2022/07/14 01:50:10;;;;;;;;;;;;;;;27.18;45.52;99982.03;2061113;28;19940;-75
2022/07/14 01:51:10;;;;;;;;;;;;;;;27.16;45.51;99991.38;2065438;28;19984;-75
2022/07/14 01:52:10;;;;;;;;;;;;;;;27.17;45.20;99989.50;2069756;28;19971;-74
2022/07/14 01:53:11;;;;;;;;;;;;;;;27.17;45.46;99986.72;2062225;28;19975;-75
2022/07/14 01:54:11;;;;;;;;;;;;;;;27.18;45.41;99982.88;2066281;28;19979;-75
2022/07/14 01:55:11;;;;;;;;;;;;;;;27.17;45.48;99992.25;2061047;28;19918;-75
2022/07/14 01:56:11;;;;;;;;;;;;;;;27.16;45.54;99985.84;2065461;28;19917;-75
2022/07/14 01:57:12;;;;;;;;;;;;;;;27.17;45.35;99989.50;2069453;28;19917;-75
2022/07/14 01:58:12;;;;;;;;;;;;;;;27.15;45.56;99988.84;2060949;28;19947;-75
2022/07/14 01:59:13;;;;;;;;;;;;;;;27.14;45.26;99985.22;2071609;28;20761;-75
2022/07/14 02:00:13;;;;;;;;;;;;;;;27.16;45.54;99987.75;2062569;28;19917;-75
2022/07/14 02:02:33;;;;;;;;;;;;;;;27.14;45.57;99981.56;2065037;28;19963;-75
2022/07/14 02:03:34;;;;;;;;;;;;;;;27.14;45.65;99981.56;2064209;28;19921;-75
2022/07/14 02:04:34;;;;;;;;;;;;;;;27.14;45.60;99981.56;2067896;28;19948;-75
2022/07/14 02:05:34;;;;;;;;;;;;;;;27.14;45.55;99978.81;2066063;28;19952;-75
2022/07/14 02:06:35;;;;;;;;;;;;;;;27.14;45.47;99984.34;2061636;28;19916;-75
2022/07/14 02:07:35;;;;;;;;;;;;;;;27.14;45.49;99976.03;2063780;28;19917;-74
2022/07/14 02:08:35;;;;;;;;;;;;;;;27.14;45.62;99984.34;2063984;28;20281;-75
2022/07/14 02:12:14;;;;;;;;;;;;;;;27.15;45.48;99972.25;2062543;28;19921;-75
2022/07/14 02:13:14;;;;;;;;;;;;;;;27.13;45.39;99968.81;2065376;28;19918;-75
2022/07/14 02:14:14;;;;;;;;;;;;;;;27.14;45.36;99976.03;2065309;28;19958;-75
2022/07/14 02:15:15;;;;;;;;;;;;;;;27.14;45.35;99984.34;2064713;28;19971;-75
2022/07/14 02:16:15;;;;;;;;;;;;;;;27.15;45.46;99972.25;2063245;28;19943;-75
2022/07/14 02:17:15;;;;;;;;;;;;;;;27.14;45.48;99973.28;2064090;28;19918;-75
2022/07/14 02:18:16;;;;;;;;;;;;;;;27.13;45.50;99975.19;2062232;28;19957;-75
2022/07/14 02:19:16;;;;;;;;;;;;;;;27.15;45.58;99972.25;2068616;28;19924;-75
2022/07/14 02:20:17;;;;;;;;;;;;;;;27.14;45.41;99970.50;2064425;28;20747;-75
2022/07/14 02:21:17;;;;;;;;;;;;;;;27.13;45.52;99969.66;2060792;28;20863;-75
2022/07/14 02:22:17;;;;;;;;;;;;;;;27.13;45.60;99972.44;2066105;28;20321;-75
2022/07/14 02:23:18;;;;;;;;;;;;;;;27.14;45.58;99970.50;2065156;28;19917;-76
2022/07/14 02:24:18;;;;;;;;;;;;;;;27.14;45.45;99967.75;2061803;28;20555;-75
2022/07/14 02:25:19;;;;;;;;;;;;;;;27.13;45.59;99968.81;2067455;28;20475;-75
2022/07/14 02:26:19;;;;;;;;;;;;;;;27.13;45.38;99979.88;2064237;28;20093;-75
2022/07/14 02:27:19;;;;;;;;;;;;;;;27.13;45.48;99971.59;2066512;28;20138;-75
2022/07/14 02:28:19;;;;;;;;;;;;;;;27.15;45.57;99977.78;2064316;28;20879;-75
2022/07/14 02:29:20;;;;;;;;;;;;;;;27.14;45.31;99976.03;2063129;28;20124;-75
2022/07/14 02:30:21;;;;;;;;;;;;;;;27.13;45.60;99966.06;2064335;28;19967;-75
2022/07/14 02:31:21;;;;;;;;;;;;;;;27.13;45.41;99968.81;2069442;28;19916;-75
2022/07/14 02:32:21;;;;;;;;;;;;;;;27.13;45.38;99968.81;2068769;28;20601;-75
2022/07/14 02:33:21;;;;;;;;;;;;;;;27.13;45.34;99966.06;2068953;28;19909;-75
2022/07/14 02:34:22;;;;;;;;;;;;;;;27.13;45.53;99968.81;2063328;28;19924;-75
2022/07/14 02:35:23;;;;;;;;;;;;;;;27.13;45.50;99968.81;2063638;28;19913;-75
2022/07/14 02:36:23;;;;;;;;;;;;;;;27.13;45.29;99968.81;2061602;28;19924;-74
2022/07/14 02:37:24;;;;;;;;;;;;;;;27.12;45.43;99962.44;2068598;28;19979;-75
2022/07/14 02:38:24;;;;;;;;;;;;;;;27.13;45.48;99960.53;2063767;28;19921;-75
2022/07/14 02:39:24;;;;;;;;;;;;;;;27.14;45.42;99959.44;2064546;28;19979;-75
2022/07/14 02:40:25;;;;;;;;;;;;;;;27.12;45.39;99958.78;2069946;28;19915;-75
2022/07/14 02:41:25;;;;;;;;;;;;;;;27.13;45.69;99957.75;2063366;28;19996;-75
2022/07/14 02:42:25;;;;;;;;;;;;;;;27.13;45.63;99960.53;2065030;28;19913;-75
2022/07/14 02:43:26;;;;;;;;;;;;;;;27.12;45.42;99961.56;2065172;28;20015;-75
2022/07/14 02:44:26;;;;;;;;;;;;;;;27.12;45.63;99967.09;2069511;28;19932;-75
2022/07/14 02:45:26;;;;;;;;;;;;;;;27.12;45.64;99964.31;2065317;28;20025;-75
2022/07/14 02:46:27;;;;;;;;;;;;;;;27.11;45.59;99963.47;2063108;28;19921;-75
2022/07/14 02:47:27;;;;;;;;;;;;;;;27.11;45.52;99960.72;2070189;28;19944;-75
2022/07/14 02:48:27;;;;;;;;;;;;;;;27.11;45.33;99965.41;2067974;28;19922;-75
2022/07/14 02:49:28;;;;;;;;;;;;;;;27.11;45.39;99970.94;2062243;28;19910;-75
2022/07/14 02:50:28;;;;;;;;;;;;;;;27.11;45.45;99969.00;2068595;28;19964;-75
2022/07/14 02:51:28;;;;;;;;;;;;;;;27.10;45.40;99956.25;2068397;28;19917;-76
2022/07/14 02:52:29;;;;;;;;;;;;;;;27.11;45.63;99966.25;2062711;28;19952;-75
2022/07/14 02:53:29;;;;;;;;;;;;;;;27.11;45.52;99957.09;2068302;28;20422;-75
2022/07/14 02:54:30;;;;;;;;;;;;;;;27.11;45.53;99957.09;2059151;28;19917;-75
2022/07/14 02:55:31;;;;;;;;;;;;;;;27.11;45.40;99959.88;2067553;28;19916;-75
2022/07/14 02:56:31;;;;;;;;;;;;;;;27.10;45.36;99964.56;2067884;28;19916;-74
2022/07/14 02:57:31;;;;;;;;;;;;;;;27.11;45.59;99954.34;2064694;28;19964;-75
2022/07/14 02:58:32;;;;;;;;;;;;;;;27.10;45.72;99959.03;2067152;28;19925;-75
2022/07/14 02:59:32;;;;;;;;;;;;;;;27.11;45.39;99960.72;2062964;28;19924;-75
2022/07/14 03:00:33;;;;;;;;;;;;;;;27.11;45.50;99959.88;2063964;28;19924;-75
2022/07/14 03:01:33;;;;;;;;;;;;;;;27.10;45.45;99964.56;2065902;28;19917;-75
2022/07/14 03:02:34;;;;;;;;;;;;;;;27.11;45.71;99959.88;2062320;28;20355;-75
2022/07/14 03:03:34;;;;;;;;;;;;;;;27.11;45.47;99959.88;2064719;28;20666;-75
2022/07/14 03:04:35;;;;;;;;;;;;;;;27.11;45.73;99965.41;2065273;28;20152;-75
2022/07/14 03:05:36;;;;;;;;;;;;;;;27.10;45.72;99959.03;2061149;28;19916;-75
2022/07/14 03:06:36;;;;;;;;;;;;;;;27.10;45.69;99964.56;2067349;28;20342;-75
2022/07/14 03:07:37;;;;;;;;;;;;;;;27.10;45.64;99959.03;2064109;28;20668;-75
2022/07/14 03:08:37;;;;;;;;;;;;;;;27.10;45.64;99955.41;2065476;28;19924;-75
2022/07/14 03:09:38;;;;;;;;;;;;;;;27.10;45.67;99958.16;2068171;28;20462;-75
2022/07/14 03:10:38;;;;;;;;;;;;;;;27.10;45.50;99963.69;2063959;28;19918;-75
2022/07/14 03:11:38;;;;;;;;;;;;;;;27.10;45.68;99960.94;2065641;28;19921;-75
2022/07/14 03:12:39;;;;;;;;;;;;;;;27.09;45.53;99961.97;2064501;28;19924;-74
2022/07/14 03:13:40;;;;;;;;;;;;;;;27.10;45.64;99963.69;2063731;28;19960;-74
2022/07/14 03:14:40;;;;;;;;;;;;;;;27.09;45.62;99962.81;2065713;28;19940;-75
2022/07/14 03:15:41;;;;;;;;;;;;;;;27.09;45.79;99962.81;2067472;28;19924;-75
2022/07/14 03:16:41;;;;;;;;;;;;;;;27.10;45.68;99966.47;2066206;28;20631;-75
2022/07/14 03:17:42;;;;;;;;;;;;;;;27.10;45.72;99963.69;2068997;28;20295;-75
2022/07/14 03:18:42;;;;;;;;;;;;;;;27.10;45.76;99963.69;2068434;28;19917;-74
2022/07/14 03:19:42;;;;;;;;;;;;;;;27.10;45.74;99966.47;2073483;28;19923;-75
2022/07/14 03:20:42;;;;;;;;;;;;;;;27.10;45.79;99963.69;2060500;28;21251;-75
2022/07/14 03:21:43;;;;;;;;;;;;;;;27.09;45.71;99962.81;2063061;28;19923;-75
2022/07/14 03:22:43;;;;;;;;;;;;;;;27.09;45.63;99962.81;2069630;28;19998;-75
2022/07/14 03:23:44;;;;;;;;;;;;;;;27.09;45.88;99964.75;2062302;28;20414;-75
2022/07/14 03:24:44;;;;;;;;;;;;;;;27.08;45.74;99972.19;2071105;28;19924;-75
2022/07/14 03:25:45;;;;;;;;;;;;;;;27.08;45.88;99965.81;2066958;28;19951;-75
2022/07/14 03:26:46;;;;;;;;;;;;;;;27.08;45.76;99971.34;2064918;28;19952;-75
2022/07/14 03:27:46;;;;;;;;;;;;;;;27.08;45.74;99971.34;2072397;28;19966;-75
2022/07/14 03:28:47;;;;;;;;;;;;;;;27.08;45.74;99965.81;2064418;28;20016;-75
2022/07/14 03:29:47;;;;;;;;;;;;;;;27.07;45.55;99969.63;2072665;28;19917;-75
2022/07/14 03:30:53;;;;;;;;;;;;;;;27.06;45.56;99967.94;2069058;28;19967;-75
2022/07/14 03:31:54;;;;;;;;;;;;;;;27.07;45.66;99969.63;2065504;28;20302;-75
2022/07/14 03:32:54;;;;;;;;;;;;;;;27.07;45.85;99980.69;2076117;28;19917;-75
2022/07/14 03:33:55;;;;;;;;;;;;;;;27.07;45.58;99973.28;2066686;28;20008;-75
2022/07/14 03:34:55;;;;;;;;;;;;;;;27.07;45.83;99976.03;2065783;28;19948;-75
2022/07/14 03:35:55;;;;;;;;;;;;;;;27.06;45.64;99973.47;2068956;28;20368;-75
2022/07/14 03:36:56;;;;;;;;;;;;;;;27.06;45.71;99979.00;2067342;28;19932;-75
2022/07/14 03:37:56;;;;;;;;;;;;;;;27.06;45.60;99977.06;2075847;28;19924;-75
2022/07/14 03:38:57;;;;;;;;;;;;;;;27.07;45.75;99975.16;2070483;28;20015;-75
2022/07/14 03:39:57;;;;;;;;;;;;;;;27.07;45.60;99975.16;2069855;28;19963;-75
2022/07/14 03:40:58;;;;;;;;;;;;;;;27.07;45.85;99975.16;2072627;28;19964;-75
2022/07/14 03:41:58;;;;;;;;;;;;;;;27.07;45.73;99975.16;2068335;28;19921;-75
2022/07/14 03:42:58;;;;;;;;;;;;;;;27.07;45.88;99976.03;2068154;28;19917;-75
2022/07/14 03:43:58;;;;;;;;;;;;;;;27.07;45.54;99975.16;2064587;28;20028;-75
2022/07/14 03:44:59;;;;;;;;;;;;;;;27.07;45.54;99981.56;2067377;28;19917;-75
2022/07/14 03:45:59;;;;;;;;;;;;;;;27.07;45.54;99977.91;2066416;28;19944;-75
2022/07/14 03:46:59;;;;;;;;;;;;;;;27.07;45.69;99980.69;2064708;28;20019;-75
2022/07/14 03:47:59;;;;;;;;;;;;;;;27.06;45.86;99979.84;2061732;28;19918;-75
2022/07/14 03:49:00;;;;;;;;;;;;;;;27.07;45.87;99980.69;2065587;28;19925;-75
2022/07/14 03:50:00;;;;;;;;;;;;;;;27.06;45.64;99979.84;2065265;28;20576;-75
2022/07/14 03:51:01;;;;;;;;;;;;;;;27.06;45.77;99973.47;2066694;28;20015;-75
2022/07/14 03:52:01;;;;;;;;;;;;;;;27.06;45.84;99981.75;2066141;28;19917;-75
2022/07/14 03:53:02;;;;;;;;;;;;;;;27.07;45.92;99986.22;2062548;28;20459;-75
2022/07/14 03:54:03;;;;;;;;;;;;;;;27.07;45.75;99983.47;2068909;28;20016;-75
2022/07/14 03:55:03;;;;;;;;;;;;;;;27.06;45.86;99981.75;2069914;28;19991;-75
2022/07/14 03:56:04;;;;;;;;;;;;;;;27.06;45.65;99990.06;2066161;28;19917;-75
2022/07/14 03:57:04;;;;;;;;;;;;;;;27.05;45.71;99983.69;2068404;28;19917;-75
2022/07/14 03:58:05;;;;;;;;;;;;;;;27.07;45.60;99986.22;2064665;28;19921;-75
2022/07/14 03:59:05;;;;;;;;;;;;;;;27.06;45.62;99984.53;2063110;28;20434;-75
2022/07/14 04:00:06;;;;;;;;;;;;;;;27.06;45.91;99990.06;2065808;28;20400;-75
2022/07/14 04:01:06;;;;;;;;;;;;;;;27.06;45.56;99995.59;2060939;28;19928;-75
2022/07/14 04:02:07;;;;;;;;;;;;;;;27.05;45.85;99989.22;2066985;28;20403;-75
2022/07/14 04:03:08;;;;;;;;;;;;;;;27.06;45.64;99992.81;2064815;28;19917;-75
2022/07/14 04:04:08;;;;;;;;;;;;;;;27.06;45.60;99993.69;2068788;28;19924;-75
2022/07/14 04:05:08;;;;;;;;;;;;;;;27.04;45.61;99993.03;2062008;28;20359;-75
2022/07/14 04:06:09;;;;;;;;;;;;;;;27.05;45.71;99997.50;2062952;28;19917;-75
2022/07/14 04:07:09;;;;;;;;;;;;;;;27.04;45.61;100003.25;2067447;28;20207;-75
2022/07/14 04:08:09;;;;;;;;;;;;;;;27.04;45.86;99993.03;2064356;28;20975;-75
2022/07/14 04:09:10;;;;;;;;;;;;;;;27.04;45.63;99997.72;2065443;28;19924;-75
2022/07/14 04:10:10;;;;;;;;;;;;;;;27.03;45.85;99996.00;2068023;28;19952;-75
2022/07/14 04:11:11;;;;;;;;;;;;;;;27.04;45.61;99993.03;2066031;28;20218;-75
2022/07/14 04:12:11;;;;;;;;;;;;;;;27.03;45.86;99994.09;2060471;28;20015;-75
2022/07/14 04:13:11;;;;;;;;;;;;;;;27.04;45.88;99992.19;2063142;28;20300;-74
2022/07/14 04:14:11;;;;;;;;;;;;;;;27.03;45.61;99996.00;2062042;28;19956;-74
2022/07/14 04:15:12;;;;;;;;;;;;;;;27.04;45.93;99994.94;2066703;28;19917;-75
2022/07/14 04:16:12;;;;;;;;;;;;;;;27.03;45.86;99996.84;2066480;28;20379;-75
2022/07/14 04:17:13;;;;;;;;;;;;;;;27.03;45.76;100001.53;2067277;28;20008;-75
2022/07/14 04:18:13;;;;;;;;;;;;;;;27.03;45.92;99998.78;2065380;28;20451;-75
2022/07/14 04:19:13;;;;;;;;;;;;;;;27.03;45.76;100002.38;2068039;28;20307;-74
2022/07/14 04:20:14;;;;;;;;;;;;;;;27.02;45.89;99997.06;2067211;28;19909;-75
2022/07/14 04:21:14;;;;;;;;;;;;;;;27.03;45.69;99996.84;2065568;28;19918;-75
2022/07/14 04:22:14;;;;;;;;;;;;;;;27.03;45.62;100001.53;2068709;28;19909;-75
2022/07/14 04:23:15;;;;;;;;;;;;;;;27.04;45.91;99998.56;2064063;28;19931;-75
2022/07/14 04:24:15;;;;;;;;;;;;;;;27.03;45.90;100005.16;2060287;28;19956;-75
2022/07/14 04:25:16;;;;;;;;;;;;;;;27.03;45.93;100001.53;2060175;28;19924;-75
2022/07/14 04:26:17;;;;;;;;;;;;;;;27.03;45.77;100001.53;2061330;28;19959;-75
2022/07/14 04:27:17;;;;;;;;;;;;;;;27.02;45.88;100000.69;2060503;28;20511;-75
2022/07/14 04:28:17;;;;;;;;;;;;;;;27.03;45.79;99998.78;2065039;28;20355;-75
2022/07/14 04:29:18;;;;;;;;;;;;;;;27.03;45.57;99993.25;2066250;28;20306;-75
2022/07/14 04:30:18;;;;;;;;;;;;;;;27.03;45.65;99996.00;2063119;28;19928;-75
2022/07/14 04:31:18;;;;;;;;;;;;;;;27.03;45.87;99998.78;2062910;28;19939;-75
2022/07/14 04:32:19;;;;;;;;;;;;;;;27.02;45.69;99995.16;2062939;28;20373;-75
2022/07/14 04:33:20;;;;;;;;;;;;;;;27.03;45.77;100004.31;2063725;28;20008;-75
2022/07/14 04:34:20;;;;;;;;;;;;;;;27.02;45.77;99989.63;2066989;28;20549;-75
2022/07/14 04:35:20;;;;;;;;;;;;;;;27.02;45.63;99997.06;2066151;28;20016;-75
2022/07/14 04:36:22;;;;;;;;;;;;;;;27.03;45.78;100001.53;2065409;28;20260;-75
2022/07/14 04:37:22;;;;;;;;;;;;;;;27.03;45.87;100001.53;2061709;28;19925;-75
2022/07/14 04:38:25;;;;;;;;;;;;;;;27.02;45.72;99994.28;2064345;28;19913;-75
2022/07/14 04:39:25;;;;;;;;;;;;;;;27.02;45.83;99997.94;2061898;28;19968;-75
2022/07/14 04:40:26;;;;;;;;;;;;;;;27.02;45.60;99999.81;2067931;28;20058;-75
2022/07/14 04:41:26;;;;;;;;;;;;;;;27.01;45.77;99998.97;2066524;28;19940;-75
2022/07/14 04:42:26;;;;;;;;;;;;;;;27.02;45.58;99999.81;2066495;28;20054;-75
2022/07/14 04:43:27;;;;;;;;;;;;;;;27.02;45.67;100005.34;2062735;28;19924;-75
2022/07/14 04:44:27;;;;;;;;;;;;;;;27.02;45.69;100010.88;2066920;28;19917;-75
2022/07/14 04:45:27;;;;;;;;;;;;;;;27.02;45.78;100000.69;2061470;28;19917;-75
2022/07/14 04:46:28;;;;;;;;;;;;;;;27.01;45.86;100001.75;2069926;28;19920;-75
2022/07/14 04:47:28;;;;;;;;;;;;;;;27.02;45.93;100008.13;2069307;28;19921;-75
2022/07/14 04:48:28;;;;;;;;;;;;;;;27.02;45.70;100009.00;2067593;28;19959;-75
2022/07/14 04:52:06;;;;;;;;;;;;;;;27.01;45.73;100009.19;2063389;28;20335;-74
2022/07/14 04:53:06;;;;;;;;;;;;;;;27.01;45.95;100014.72;2071360;28;19952;-73
2022/07/14 04:54:07;;;;;;;;;;;;;;;27.01;45.88;100017.50;2071961;28;19908;-75
2022/07/14 04:55:07;;;;;;;;;;;;;;;27.00;45.87;100019.41;2067259;28;19944;-75
2022/07/14 04:56:08;;;;;;;;;;;;;;;27.00;45.97;100013.00;2070436;28;20002;-75
2022/07/14 04:57:08;;;;;;;;;;;;;;;26.99;45.83;100016.84;2066837;28;20151;-74
2022/07/14 04:58:09;;;;;;;;;;;;;;;26.99;45.98;100017.69;2063706;28;19921;-74
2022/07/14 04:59:09;;;;;;;;;;;;;;;26.99;45.68;100016.84;2065288;28;19925;-75
2022/07/14 05:00:10;;;;;;;;;;;;;;;26.99;45.71;100017.69;2067508;28;19916;-75
2022/07/14 05:01:12;;;;;;;;;;;;;;;26.99;45.69;100019.59;2069495;28;19924;-75
2022/07/14 05:02:12;;;;;;;;;;;;;;;26.99;45.74;100016.84;2066586;28;19914;-75
2022/07/14 05:03:13;;;;;;;;;;;;;;;27.00;45.81;100021.28;2073358;28;19947;-75
2022/07/14 05:04:13;;;;;;;;;;;;;;;26.99;45.72;100016.84;2065244;28;19924;-75
2022/07/14 05:05:13;;;;;;;;;;;;;;;27.00;45.93;100018.53;2072149;28;19924;-75
2022/07/14 05:06:15;;;;;;;;;;;;;;;27.00;45.92;100018.53;2068586;28;19956;-75
2022/07/14 05:07:15;;;;;;;;;;;;;;;27.00;45.96;100018.53;2061697;28;20336;-75
2022/07/14 05:08:16;;;;;;;;;;;;;;;26.99;45.86;100017.69;2072824;28;19938;-74
2022/07/14 05:09:19;;;;;;;;;;;;;;;26.99;46.00;100016.84;2065725;28;20018;-75
2022/07/14 05:10:19;;;;;;;;;;;;;;;26.99;45.79;100016.84;2069531;28;19968;-74
2022/07/14 05:11:20;;;;;;;;;;;;;;;27.00;45.82;100013.00;2070406;28;20011;-75
2022/07/14 05:12:20;;;;;;;;;;;;;;;26.99;45.94;100011.31;2065046;28;19917;-75
2022/07/14 05:13:20;;;;;;;;;;;;;;;26.99;45.64;100016.84;2072541;28;19999;-74
2022/07/14 05:14:20;;;;;;;;;;;;;;;26.99;45.68;100014.06;2063916;28;20416;-75
2022/07/14 05:15:21;;;;;;;;;;;;;;;26.99;45.98;100016.84;2062198;28;20359;-75
2022/07/14 05:16:21;;;;;;;;;;;;;;;26.99;45.73;100011.31;2068475;28;19917;-75
2022/07/14 05:17:22;;;;;;;;;;;;;;;26.99;45.71;100017.69;2064807;28;19917;-75
2022/07/14 05:18:22;;;;;;;;;;;;;;;26.99;45.93;100022.38;2072220;28;19917;-75
2022/07/14 05:19:22;;;;;;;;;;;;;;;27.00;46.05;100024.06;2070726;28;19916;-74
2022/07/14 05:20:23;;;;;;;;;;;;;;;27.00;45.96;100029.59;2069943;28;19925;-75